Time;durP1;ratioP1;P1;durP2;ratioP2;P2;SDS_P1;SDS_P2;PMS_P1;PMS_P2;Temp;Humidity;BMP_temperature;BMP_pressure;BME280_temperature;BME280_humidity;BME280_pressure;Samples;Min_cycle;Max_cycle;Signal;HPM_P1;HPM_P2
2021/06/21 00:01:41;;;;;;;1999.90;999.90;;;21.00;99.90;;;;;;5015308;28;20165;-65
2021/06/21 00:04:07;;;;;;;1999.90;999.90;;;21.00;99.90;;;;;;5014951;28;20176;-65
2021/06/21 00:06:32;;;;;;;1999.90;999.90;;;20.90;99.90;;;;;;5015215;28;20231;-64
2021/06/21 00:08:58;;;;;;;1999.90;999.90;;;20.90;99.90;;;;;;5015207;28;20176;-65
2021/06/21 00:11:24;;;;;;;1999.90;999.90;;;20.90;99.90;;;;;;5015172;28;20181;-65
2021/06/21 00:13:49;;;;;;;1999.90;999.90;;;20.90;99.90;;;;;;5014807;28;20219;-65
2021/06/21 00:16:15;;;;;;;1999.90;999.90;;;20.80;99.90;;;;;;5014907;28;20235;-65
2021/06/21 00:18:41;;;;;;;1999.90;999.90;;;20.80;99.90;;;;;;5015023;28;20166;-65
2021/06/21 00:21:07;;;;;;;1999.90;999.90;;;20.70;99.90;;;;;;5014977;28;20169;-64
2021/06/21 00:23:32;;;;;;;1999.90;999.90;;;20.70;99.90;;;;;;5014940;28;20173;-64
2021/06/21 00:25:58;;;;;;;1999.90;999.90;;;20.80;99.90;;;;;;5014559;28;20176;-64
2021/06/21 00:28:24;;;;;;;1999.90;999.90;;;20.80;99.90;;;;;;5014800;28;20185;-65
2021/06/21 00:30:50;;;;;;;1999.90;999.90;;;20.80;99.90;;;;;;5014839;28;20254;-66
2021/06/21 00:33:16;;;;;;;1999.90;999.90;;;20.80;99.90;;;;;;5014781;28;20188;-66
2021/06/21 00:35:42;;;;;;;1999.90;999.90;;;20.80;99.90;;;;;;5014285;28;20401;-66
2021/06/21 00:38:07;;;;;;;1999.90;999.90;;;20.80;99.90;;;;;;5014625;28;20435;-66
2021/06/21 00:40:38;;;;;;;1999.90;999.90;;;20.80;99.90;;;;;;5014648;28;20555;-64
2021/06/21 00:43:05;;;;;;;1999.90;999.90;;;20.80;99.90;;;;;;5014595;28;20184;-65
2021/06/21 00:45:31;;;;;;;1999.90;999.90;;;20.70;99.90;;;;;;5014223;28;20406;-64
2021/06/21 00:47:57;;;;;;;1999.90;999.90;;;20.70;99.90;;;;;;5013695;28;20433;-65
2021/06/21 00:50:25;;;;;;;1999.90;999.90;;;20.70;99.90;;;;;;5014465;28;20165;-65
2021/06/21 00:52:55;;;;;;;1999.90;999.90;;;20.60;99.90;;;;;;5014366;28;20408;-64
2021/06/21 00:55:21;;;;;;;1999.90;999.90;;;20.60;99.90;;;;;;5014147;28;20411;-64
2021/06/21 00:57:47;;;;;;;1999.90;999.90;;;20.70;99.90;;;;;;5014309;28;20417;-64
2021/06/21 01:00:18;;;;;;;1999.90;999.90;;;20.70;99.90;;;;;;5014201;28;20635;-65
2021/06/21 01:02:44;;;;;;;1999.90;999.90;;;20.60;99.90;;;;;;5014332;28;20170;-66
2021/06/21 01:05:13;;;;;;;1999.90;999.90;;;20.50;99.90;;;;;;5013869;28;20465;-65
2021/06/21 01:07:40;;;;;;;1999.90;999.90;;;20.30;99.90;;;;;;5014076;28;20470;-64
2021/06/21 01:10:07;;;;;;;1999.90;999.90;;;20.30;99.90;;;;;;5014070;28;20534;-64
2021/06/21 01:12:48;;;;;;;1999.90;999.90;;;20.20;99.90;;;;;;5014000;28;20436;-65
2021/06/21 01:15:15;;;;;;;1999.90;999.90;;;20.10;99.90;;;;;;5013754;28;20835;-64
2021/06/21 01:18:04;;;;;;;1999.90;999.90;;;20.00;99.90;;;;;;5013845;28;20955;-65
2021/06/21 01:20:41;;;;;;;1999.90;999.90;;;19.90;99.90;;;;;;5013932;28;20436;-65
2021/06/21 01:23:25;;;;;;;1999.90;999.90;;;20.00;99.90;;;;;;5013776;28;20967;-66
2021/06/21 01:26:01;;;;;;;1999.90;999.90;;;20.10;99.90;;;;;;5013474;28;20500;-64
2021/06/21 01:28:39;;;;;;;1999.90;999.90;;;19.80;99.90;;;;;;5013705;28;20468;-66
2021/06/21 01:31:11;;;;;;;1999.90;999.90;;;19.80;99.90;;;;;;5013761;28;20921;-65
2021/06/21 01:33:38;;;;;;;1999.90;999.90;;;19.70;99.90;;;;;;5013569;28;20483;-67
2021/06/21 01:36:06;;;;;;;1999.90;999.90;;;19.60;99.90;;;;;;5013142;28;20437;-65
2021/06/21 01:38:40;;;;;;;1999.90;999.90;;;19.60;99.90;;;;;;5013538;28;20503;-65
2021/06/21 01:41:10;;;;;;;1999.90;999.90;;;19.50;99.90;;;;;;5013471;28;20443;-64
2021/06/21 01:43:41;;;;;;;1999.90;999.90;;;19.50;99.90;;;;;;5013381;28;20465;-64
2021/06/21 01:46:09;;;;;;;1999.90;999.90;;;19.60;99.90;;;;;;5013159;28;20480;-64
2021/06/21 01:48:44;;;;;;;1999.90;999.90;;;19.60;99.90;;;;;;5013436;28;20872;-64
2021/06/21 01:51:10;;;;;;;1999.90;999.90;;;19.60;99.90;;;;;;5013300;28;20470;-64
2021/06/21 01:53:38;;;;;;;1999.90;999.90;;;19.60;99.90;;;;;;5013136;28;20446;-65
2021/06/21 01:56:20;;;;;;;1999.90;999.90;;;19.60;99.90;;;;;;5012937;28;20433;-65
2021/06/21 01:58:49;;;;;;;1999.90;999.90;;;19.60;99.90;;;;;;5012213;28;20404;-66
2021/06/21 02:01:17;;;;;;;1999.90;999.90;;;19.60;99.90;;;;;;5013126;28;20439;-64
2021/06/21 02:03:48;;;;;;;1999.90;999.90;;;19.50;99.90;;;;;;5013026;28;20791;-64
2021/06/21 02:06:15;;;;;;;1999.90;999.90;;;19.40;99.90;;;;;;5012905;28;20448;-64
2021/06/21 02:08:44;;;;;;;1999.90;999.90;;;19.40;99.90;;;;;;5013003;28;20410;-64
2021/06/21 02:11:11;;;;;;;1999.90;999.90;;;19.40;99.90;;;;;;5012910;28;20414;-65
2021/06/21 02:13:37;;;;;;;1999.90;999.90;;;19.40;99.90;;;;;;5012800;28;20451;-65
2021/06/21 02:16:05;;;;;;;1999.90;999.90;;;19.60;99.90;;;;;;5011293;28;20497;-64
2021/06/21 02:18:32;;;;;;;1999.90;999.90;;;19.40;99.90;;;;;;5012862;28;20784;-65
2021/06/21 02:20:58;;;;;;;1999.90;999.90;;;19.50;99.90;;;;;;5012799;28;20402;-65
2021/06/21 02:23:24;;;;;;;1999.90;999.90;;;19.40;99.90;;;;;;5012772;28;20418;-64
2021/06/21 02:25:52;;;;;;;1999.90;999.90;;;19.30;99.90;;;;;;5012360;28;20172;-64
2021/06/21 02:28:19;;;;;;;1999.90;999.90;;;19.40;99.90;;;;;;5012663;28;20401;-64
2021/06/21 02:30:48;;;;;;;1999.90;999.90;;;19.40;99.90;;;;;;5012716;28;20402;-64
2021/06/21 02:33:15;;;;;;;1999.90;999.90;;;19.40;99.90;;;;;;5012564;28;20824;-64
2021/06/21 02:35:42;;;;;;;1999.90;999.90;;;19.40;99.90;;;;;;5012188;28;20482;-65
2021/06/21 02:38:08;;;;;;;1999.90;999.90;;;19.30;99.90;;;;;;5011205;28;20524;-64
2021/06/21 02:40:33;;;;;;;1999.90;999.90;;;19.30;99.90;;;;;;5012550;28;20490;-65
2021/06/21 02:42:59;;;;;;;1999.90;999.90;;;19.30;99.90;;;;;;5012529;28;20169;-64
2021/06/21 02:45:25;;;;;;;1999.90;999.90;;;19.30;99.90;;;;;;5012202;28;20159;-65
2021/06/21 02:47:51;;;;;;;1999.90;999.90;;;19.40;99.90;;;;;;5012377;28;20600;-67
2021/06/21 02:50:16;;;;;;;1999.90;999.90;;;19.50;99.90;;;;;;5012385;28;20158;-66
2021/06/21 02:52:48;;;;;;;1999.90;999.90;;;19.50;99.90;;;;;;5012281;28;20411;-65
2021/06/21 02:55:50;;;;;;;1999.90;999.90;;;19.60;99.90;;;;;;5012022;28;20175;-64
2021/06/21 02:58:26;;;;;;;1999.90;999.90;;;19.60;99.90;;;;;;5012337;28;20979;-64
2021/06/21 03:00:54;;;;;;;1999.90;999.90;;;19.60;99.90;;;;;;5012358;28;20918;-65
2021/06/21 03:03:26;;;;;;;1999.90;999.90;;;19.60;99.90;;;;;;5012254;28;20410;-64
2021/06/21 03:05:53;;;;;;;1999.90;999.90;;;19.60;99.90;;;;;;5011894;28;20405;-64
2021/06/21 03:08:19;;;;;;;1999.90;999.90;;;19.70;99.90;;;;;;5012214;28;20408;-64
2021/06/21 03:10:47;;;;;;;1999.90;999.90;;;19.70;99.90;;;;;;5014557;28;20487;-65
2021/06/21 03:13:13;;;;;;;1999.90;999.90;;;19.80;99.90;;;;;;5016186;28;20453;-65
2021/06/21 03:15:40;;;;;;;1999.90;999.90;;;19.90;99.90;;;;;;5014889;28;21006;-66
2021/06/21 03:18:07;;;;;;;1999.90;999.90;;;20.00;99.90;;;;;;5016037;28;20423;-65
2021/06/21 03:20:33;;;;;;;1999.90;999.90;;;20.00;99.90;;;;;;5016192;28;20410;-66
2021/06/21 03:23:02;;;;;;;1999.90;999.90;;;20.10;99.90;;;;;;5016169;28;20410;-66
2021/06/21 03:25:30;;;;;;;1999.90;999.90;;;20.10;99.90;;;;;;5015726;28;20409;-66
2021/06/21 03:27:58;;;;;;;1999.90;999.90;;;20.00;99.90;;;;;;5015922;28;20566;-65
2021/06/21 03:30:24;;;;;;;1999.90;999.90;;;19.90;99.90;;;;;;5016293;28;20406;-67
2021/06/21 03:32:54;;;;;;;1999.90;999.90;;;19.80;99.90;;;;;;5015805;28;20409;-65
2021/06/21 03:35:21;;;;;;;1999.90;999.90;;;19.80;99.90;;;;;;5015593;28;20403;-65
2021/06/21 03:37:47;;;;;;;1999.90;999.90;;;19.90;99.90;;;;;;5015767;28;20522;-65
2021/06/21 03:40:13;;;;;;;1999.90;999.90;;;19.90;99.90;;;;;;5014511;28;20866;-65
2021/06/21 03:42:39;;;;;;;1999.90;999.90;;;19.90;99.90;;;;;;5015737;28;20398;-68
2021/06/21 03:45:07;;;;;;;1999.90;999.90;;;19.90;99.90;;;;;;5015606;28;20491;-68
2021/06/21 03:47:38;;;;;;;1999.90;999.90;;;19.80;99.90;;;;;;5015553;28;20521;-64
2021/06/21 03:50:05;;;;;;;1999.90;999.90;;;19.80;99.90;;;;;;5015737;28;21189;-65
2021/06/21 03:52:31;;;;;;;1999.90;999.90;;;19.80;99.90;;;;;;5015859;28;20934;-65
2021/06/21 03:55:06;;;;;;;1999.90;999.90;;;19.80;99.90;;;;;;5015116;28;20454;-66
2021/06/21 03:57:40;;;;;;;1999.90;999.90;;;19.90;99.90;;;;;;5015366;28;20258;-65
2021/06/21 04:00:12;;;;;;;1999.90;999.90;;;19.90;99.90;;;;;;5015423;28;20510;-66
2021/06/21 04:02:38;;;;;;;1999.90;999.90;;;20.00;99.90;;;;;;5015247;28;20463;-66
2021/06/21 04:05:06;;;;;;;1999.90;999.90;;;20.10;99.90;;;;;;5015141;28;20485;-65
2021/06/21 04:07:32;;;;;;;1999.90;999.90;;;20.00;99.90;;;;;;5015196;28;20573;-65
2021/06/21 04:09:58;;;;;;;1999.90;999.90;;;20.00;99.90;;;;;;5015093;28;20411;-65
2021/06/21 04:12:25;;;;;;;1999.90;999.90;;;20.10;99.90;;;;;;5015149;28;20403;-65
2021/06/21 04:14:51;;;;;;;1999.90;999.90;;;20.10;99.90;;;;;;5013521;28;20510;-65
2021/06/21 04:17:17;;;;;;;1999.90;999.90;;;20.20;99.90;;;;;;5015010;28;20478;-65
2021/06/21 04:19:43;;;;;;;1999.90;999.90;;;20.20;99.90;;;;;;5015027;28;20805;-66
2021/06/21 04:22:08;;;;;;;1999.90;999.90;;;20.20;99.90;;;;;;5014312;28;20170;-66
2021/06/21 04:24:34;;;;;;;1999.90;999.90;;;20.20;99.90;;;;;;5014614;28;20201;-67
2021/06/21 04:27:00;;;;;;;1999.90;999.90;;;20.20;99.90;;;;;;5014850;28;20205;-67
2021/06/21 04:29:25;;;;;;;1999.90;999.90;;;20.00;99.90;;;;;;5014988;28;20598;-67
2021/06/21 04:31:51;;;;;;;1999.90;999.90;;;20.00;99.90;;;;;;5014885;28;20163;-67
2021/06/21 04:34:17;;;;;;;1999.90;999.90;;;20.00;99.90;;;;;;5014447;28;20252;-65
2021/06/21 04:36:42;;;;;;;1999.90;999.90;;;20.00;99.90;;;;;;5014573;28;20287;-67
2021/06/21 04:39:08;;;;;;;1999.90;999.90;;;20.00;99.90;;;;;;5014637;28;20205;-67
2021/06/21 04:41:34;;;;;;;1999.90;999.90;;;20.00;99.90;;;;;;5014609;28;20169;-67
2021/06/21 04:43:59;;;;;;;1999.90;999.90;;;20.00;99.90;;;;;;5014368;28;20607;-66
2021/06/21 04:46:26;;;;;;;1999.90;999.90;;;20.10;99.90;;;;;;5014516;28;20199;-68
2021/06/21 04:48:52;;;;;;;1999.90;999.90;;;20.10;99.90;;;;;;5014552;28;20603;-67
2021/06/21 04:51:20;;;;;;;1999.90;999.90;;;20.10;99.90;;;;;;5014445;28;20415;-67
2021/06/21 04:53:47;;;;;;;1999.90;999.90;;;20.20;99.90;;;;;;5013946;28;20451;-68
2021/06/21 04:56:13;;;;;;;1999.90;999.90;;;20.20;99.90;;;;;;5014378;28;20428;-67
2021/06/21 04:58:39;;;;;;;1999.90;999.90;;;20.30;99.90;;;;;;5014348;28;20403;-67
2021/06/21 05:01:06;;;;;;;1999.90;999.90;;;20.30;99.90;;;;;;5014297;28;20407;-67
2021/06/21 05:03:33;;;;;;;1999.90;999.90;;;20.30;99.90;;;;;;5014170;28;20634;-67
2021/06/21 05:05:58;;;;;;;1999.90;999.90;;;20.40;99.90;;;;;;5013805;28;20412;-67
2021/06/21 05:08:26;;;;;;;1999.90;999.90;;;20.50;99.90;;;;;;5014157;28;20920;-67
2021/06/21 05:10:51;;;;;;;1999.90;999.90;;;20.50;99.90;;;;;;5014242;28;20637;-67
2021/06/21 05:13:17;;;;;;;1999.90;999.90;;;20.50;99.90;;;;;;5013945;28;20510;-67
2021/06/21 05:15:42;;;;;;;1999.90;999.90;;;20.50;99.90;;;;;;5013739;28;20170;-67
2021/06/21 05:18:08;;;;;;;1999.90;999.90;;;20.60;99.90;;;;;;5013888;28;20271;-66
2021/06/21 05:20:34;;;;;;;1999.90;999.90;;;20.60;99.90;;;;;;5013866;28;20177;-66
2021/06/21 05:22:59;;;;;;;1999.90;999.90;;;20.60;99.90;;;;;;5013840;28;20187;-67
2021/06/21 05:25:25;;;;;;;1999.90;999.90;;;20.60;99.90;;;;;;5013583;28;20174;-68
2021/06/21 05:27:50;;;;;;;1999.90;999.90;;;20.50;99.90;;;;;;5013737;28;20568;-67
2021/06/21 05:30:16;;;;;;;1999.90;999.90;;;20.40;99.90;;;;;;5013687;28;20179;-65
2021/06/21 05:32:42;;;;;;;1999.90;999.90;;;20.10;99.90;;;;;;5013731;28;20715;-66
2021/06/21 05:35:10;;;;;;;1999.90;999.90;;;20.00;99.90;;;;;;5013256;28;20449;-67
2021/06/21 05:37:37;;;;;;;1999.90;999.90;;;19.80;99.90;;;;;;5013291;28;20203;-65
2021/06/21 05:40:04;;;;;;;1999.90;999.90;;;19.90;99.90;;;;;;5013526;28;20402;-66
2021/06/21 05:42:30;;;;;;;1999.90;999.90;;;19.80;99.90;;;;;;5013461;28;20410;-67
2021/06/21 05:44:56;;;;;;;1999.90;999.90;;;19.80;99.90;;;;;;5013177;28;20404;-67
2021/06/21 05:47:21;;;;;;;1999.90;999.90;;;19.90;99.90;;;;;;5013353;28;20191;-66
2021/06/21 05:49:47;;;;;;;1999.90;999.90;;;20.00;99.90;;;;;;5013350;28;20173;-67
2021/06/21 05:52:13;;;;;;;1999.90;999.90;;;20.00;99.90;;;;;;5013266;28;20251;-67
2021/06/21 05:54:38;;;;;;;1999.90;999.90;;;20.00;99.90;;;;;;5012915;28;20332;-67
2021/06/21 05:57:05;;;;;;;1999.90;999.90;;;20.10;99.90;;;;;;5013140;28;20691;-66
2021/06/21 05:59:30;;;;;;;1999.90;999.90;;;20.30;99.90;;;;;;5013155;28;20290;-67
2021/06/21 06:01:56;;;;;;;1999.90;999.90;;;20.40;99.90;;;;;;5013136;28;20439;-67
2021/06/21 06:04:21;;;;;;;1999.90;999.90;;;20.30;99.90;;;;;;5012784;28;20172;-66
2021/06/21 06:06:47;;;;;;;1999.90;999.90;;;20.20;99.90;;;;;;5012965;28;20195;-66
2021/06/21 06:09:12;;;;;;;1999.90;999.90;;;20.10;99.90;;;;;;5013054;28;20180;-67
2021/06/21 06:11:38;;;;;;;1999.90;999.90;;;20.10;99.90;;;;;;5012913;28;20186;-67
2021/06/21 06:14:04;;;;;;;1999.90;999.90;;;20.10;99.90;;;;;;5012911;28;20194;-67
2021/06/21 06:16:30;;;;;;;1999.90;999.90;;;20.00;99.90;;;;;;5012657;28;20223;-67
2021/06/21 06:18:56;;;;;;;1999.90;999.90;;;19.80;99.90;;;;;;5012806;28;20171;-67
2021/06/21 06:21:21;;;;;;;1999.90;999.90;;;19.60;99.90;;;;;;5012828;28;20177;-67
2021/06/21 06:23:47;;;;;;;1999.90;999.90;;;19.60;99.90;;;;;;5012625;28;20176;-67
2021/06/21 06:26:13;;;;;;;1999.90;999.90;;;19.40;99.90;;;;;;5012639;28;20196;-67
2021/06/21 06:28:39;;;;;;;1999.90;999.90;;;19.10;99.90;;;;;;5012792;28;20222;-67
2021/06/21 06:31:06;;;;;;;1999.90;999.90;;;19.00;99.90;;;;;;5012698;28;20421;-67
2021/06/21 06:33:32;;;;;;;1999.90;999.90;;;18.90;99.90;;;;;;5012478;28;20449;-67
2021/06/21 06:35:58;;;;;;;1999.90;999.90;;;18.60;99.90;;;;;;5012026;28;20428;-67
2021/06/21 06:38:24;;;;;;;1999.90;999.90;;;18.70;99.90;;;;;;5012698;28;20851;-67
2021/06/21 06:40:49;;;;;;;1999.90;999.90;;;18.60;99.90;;;;;;5011295;28;20414;-67
2021/06/21 06:43:15;;;;;;;1999.90;999.90;;;18.50;99.90;;;;;;5012552;28;20176;-67
2021/06/21 06:45:41;;;;;;;1999.90;999.90;;;18.30;99.90;;;;;;5011626;28;20405;-67
2021/06/21 06:48:07;;;;;;;1999.90;999.90;;;18.20;99.90;;;;;;5012283;28;20198;-67
2021/06/21 06:50:33;;;;;;;1999.90;999.90;;;18.10;99.90;;;;;;5012328;28;20183;-67
2021/06/21 06:53:00;;;;;;;1999.90;999.90;;;18.10;99.90;;;;;;5012243;28;20456;-67
2021/06/21 06:58:09;;;;;;;1999.90;999.90;;;18.00;99.90;;;;;;5012308;28;20479;-67
2021/06/21 07:00:35;;;;;;;1999.90;999.90;;;18.00;99.90;;;;;;5012194;28;20415;-67
2021/06/21 07:03:02;;;;;;;1999.90;999.90;;;18.00;99.90;;;;;;5012250;28;20172;-67
2021/06/21 07:05:28;;;;;;;1999.90;999.90;;;18.00;99.90;;;;;;5011933;28;20478;-66
2021/06/21 07:07:59;;;;;;;1999.90;999.90;;;18.00;99.90;;;;;;5012125;28;20425;-67
2021/06/21 07:10:26;;;;;;;1999.90;999.90;;;18.00;99.90;;;;;;5012338;28;20410;-64
2021/06/21 07:12:52;;;;;;;1999.90;999.90;;;18.00;99.90;;;;;;5007974;28;20488;-64
2021/06/21 07:15:18;;;;;;;1999.90;999.90;;;17.90;99.90;;;;;;5010007;28;20990;-64
2021/06/21 07:17:44;;;;;;;1999.90;999.90;;;17.80;99.90;;;;;;5010586;28;20423;-64
2021/06/21 07:20:11;;;;;;;1999.90;999.90;;;17.80;99.90;;;;;;5010308;28;20418;-64
2021/06/21 07:22:37;;;;;;;1999.90;999.90;;;17.70;99.90;;;;;;5009243;28;20951;-64
2021/06/21 07:25:04;;;;;;;1999.90;999.90;;;17.60;99.90;;;;;;5010246;28;20502;-64
2021/06/21 07:27:30;;;;;;;1999.90;999.90;;;17.60;99.90;;;;;;5010016;28;20235;-64
2021/06/21 07:29:56;;;;;;;1999.90;999.90;;;17.50;99.90;;;;;;5010431;28;20899;-64
2021/06/21 07:32:21;;;;;;;1999.90;999.90;;;17.50;99.90;;;;;;5010148;28;20664;-63
2021/06/21 07:34:48;;;;;;;1999.90;999.90;;;17.40;99.90;;;;;;5009586;28;20218;-64
2021/06/21 07:37:14;;;;;;;1999.90;999.90;;;17.30;99.90;;;;;;5010328;28;20253;-64
2021/06/21 07:39:40;;;;;;;1999.90;999.90;;;17.40;99.90;;;;;;5010383;28;20769;-64
2021/06/21 07:42:06;;;;;;;1999.90;999.90;;;17.40;99.90;;;;;;5009854;28;20177;-64
2021/06/21 07:44:34;;;;;;;1999.90;999.90;;;17.30;99.90;;;;;;5010098;28;20256;-64
2021/06/21 07:46:59;;;;;;;1999.90;999.90;;;17.40;99.90;;;;;;5010237;28;20436;-64
2021/06/21 07:49:25;;;;;;;1999.90;999.90;;;17.40;99.90;;;;;;5009793;28;20419;-64
2021/06/21 07:51:51;;;;;;;1999.90;999.90;;;17.40;99.90;;;;;;5010199;28;20234;-64
2021/06/21 07:54:19;;;;;;;1999.90;999.90;;;17.20;99.90;;;;;;5009987;28;20205;-64
2021/06/21 07:56:44;;;;;;;1999.90;999.90;;;17.10;99.90;;;;;;5011982;28;20196;-64
2021/06/21 07:59:10;;;;;;;1999.90;999.90;;;17.00;99.90;;;;;;5014158;28;20412;-64
2021/06/21 08:01:36;;;;;;;1999.90;999.90;;;16.90;99.90;;;;;;5013488;28;20192;-64
2021/06/21 08:04:02;;;;;;;1999.90;999.90;;;16.80;99.90;;;;;;4993369;28;20226;-64
2021/06/21 08:06:27;;;;;;;1999.90;999.90;;;16.80;99.90;;;;;;4994287;28;20199;-64
2021/06/21 08:08:53;;;;;;;1999.90;999.90;;;16.70;99.90;;;;;;4994274;28;20988;-64
2021/06/21 08:11:19;;;;;;;1999.90;999.90;;;16.70;99.90;;;;;;4993900;28;20176;-64
2021/06/21 08:13:44;;;;;;;1999.90;999.90;;;16.60;99.90;;;;;;4993666;28;20230;-65
2021/06/21 08:16:11;;;;;;;1999.90;999.90;;;16.60;99.90;;;;;;4993940;28;20279;-64
2021/06/21 08:18:36;;;;;;;1999.90;999.90;;;16.60;99.90;;;;;;4993220;28;20223;-64
2021/06/21 08:21:02;;;;;;;1999.90;999.90;;;16.50;99.90;;;;;;4993833;28;20919;-64
2021/06/21 08:23:30;;;;;;;1999.90;999.90;;;16.50;99.90;;;;;;4993724;28;20577;-64
2021/06/21 08:25:56;;;;;;;1999.90;999.90;;;16.80;99.90;;;;;;4993156;28;20936;-64
2021/06/21 08:28:22;;;;;;;1999.90;999.90;;;16.60;99.90;;;;;;4991561;28;20436;-66
2021/06/21 08:30:48;;;;;;;1999.90;999.90;;;16.70;99.90;;;;;;4995257;28;20547;-65
2021/06/21 08:33:14;;;;;;;1999.90;999.90;;;16.70;99.90;;;;;;5011759;28;20770;-64
2021/06/21 08:35:40;;;;;;;1999.90;999.90;;;16.90;99.90;;;;;;5012364;28;20411;-65
2021/06/21 08:38:06;;;;;;;1999.90;999.90;;;16.90;99.90;;;;;;5013185;28;20458;-65
2021/06/21 08:40:36;;;;;;;1999.90;999.90;;;16.90;99.90;;;;;;5012488;28;20203;-65
2021/06/21 08:43:03;;;;;;;1999.90;999.90;;;16.90;99.90;;;;;;5012964;28;20199;-64
2021/06/21 08:45:30;;;;;;;1999.90;999.90;;;17.00;99.90;;;;;;4996601;28;20420;-64
2021/06/21 08:47:57;;;;;;;1999.90;999.90;;;16.90;99.90;;;;;;4993110;28;20424;-65
2021/06/21 08:50:23;;;;;;;1999.90;999.90;;;17.00;99.90;;;;;;4993550;28;21078;-64
2021/06/21 08:52:49;;;;;;;1999.90;999.90;;;16.90;99.90;;;;;;4992708;28;20404;-64
2021/06/21 08:55:15;;;;;;;1999.90;999.90;;;16.90;99.90;;;;;;4992624;28;20257;-63
2021/06/21 08:57:45;;;;;;;1999.90;999.90;;;17.00;99.90;;;;;;4993188;28;20430;-63
2021/06/21 09:00:13;;;;;;;1999.90;999.90;;;17.00;99.90;;;;;;4993541;28;20170;-63
2021/06/21 09:02:39;;;;;;;1999.90;999.90;;;17.10;99.90;;;;;;4992682;28;20408;-63
2021/06/21 09:05:09;;;;;;;1999.90;999.90;;;17.20;99.90;;;;;;4992960;28;20899;-62
2021/06/21 09:07:35;;;;;;;1999.90;999.90;;;17.30;99.90;;;;;;4991930;28;20483;-63
2021/06/21 09:10:05;;;;;;;1999.90;999.90;;;17.40;99.90;;;;;;4992738;28;20399;-63
2021/06/21 09:12:32;;;;;;;1999.90;999.90;;;17.50;99.90;;;;;;4992755;28;20918;-65
2021/06/21 09:14:59;;;;;;;1999.90;999.90;;;17.60;99.90;;;;;;4992395;28;20454;-64
2021/06/21 09:17:27;;;;;;;1999.90;999.90;;;17.70;99.90;;;;;;4992196;28;20423;-66
2021/06/21 09:20:01;;;;;;;1999.90;999.90;;;17.70;99.90;;;;;;4992796;28;20583;-66
2021/06/21 09:22:37;;;;;;;1999.90;999.90;;;17.70;99.90;;;;;;4992071;28;20408;-66
2021/06/21 09:25:15;;;;;;;1999.90;999.90;;;17.50;99.90;;;;;;4992327;28;20456;-64
2021/06/21 09:27:41;;;;;;;1999.90;999.90;;;17.40;99.90;;;;;;4992264;28;20804;-63
2021/06/21 09:30:09;;;;;;;1999.90;999.90;;;17.30;99.90;;;;;;4992601;28;20419;-65
2021/06/21 09:32:52;;;;;;;1999.90;999.90;;;17.20;99.90;;;;;;4991707;28;20927;-65
2021/06/21 09:35:30;;;;;;;1999.90;999.90;;;17.10;99.90;;;;;;4992099;28;20458;-65
2021/06/21 09:37:58;;;;;;;1999.90;999.90;;;17.20;99.90;;;;;;4990345;28;20860;-65
2021/06/21 09:40:32;;;;;;;1999.90;999.90;;;17.40;99.90;;;;;;4990272;28;20410;-65
2021/06/21 09:43:17;;;;;;;1999.90;999.90;;;17.40;99.90;;;;;;4992026;28;20514;-66
2021/06/21 09:46:03;;;;;;;1999.90;999.90;;;17.50;99.90;;;;;;4991728;28;20421;-67
2021/06/21 09:48:31;;;;;;;1999.90;999.90;;;17.60;99.90;;;;;;4990462;28;20451;-64
2021/06/21 09:50:57;;;;;;;1999.90;999.90;;;17.80;99.90;;;;;;4991986;28;20964;-64
2021/06/21 09:53:23;;;;;;;1999.90;999.90;;;18.00;99.90;;;;;;4974440;28;20458;-64
2021/06/21 09:55:49;;;;;;;1999.90;999.90;;;18.00;99.90;;;;;;4990795;28;20864;-65
2021/06/21 09:58:18;;;;;;;1999.90;999.90;;;17.90;99.90;;;;;;4991485;28;20470;-66
2021/06/21 10:00:52;;;;;;;1999.90;999.90;;;18.20;99.90;;;;;;4991814;28;20421;-65
2021/06/21 10:03:23;;;;;;;1999.90;999.90;;;18.30;99.90;;;;;;4991262;28;20437;-64
2021/06/21 10:06:00;;;;;;;1999.90;999.90;;;18.50;99.90;;;;;;4992552;28;20497;-63
2021/06/21 10:08:49;;;;;;;1999.90;999.90;;;18.70;99.90;;;;;;4991103;28;20487;-64
2021/06/21 10:11:29;;;;;;;1999.90;999.90;;;18.70;99.90;;;;;;4991302;28;20420;-65
2021/06/21 10:13:56;;;;;;;1999.90;999.90;;;18.60;99.90;;;;;;4991117;28;20575;-65
2021/06/21 10:16:22;;;;;;;1999.90;999.90;;;18.50;99.90;;;;;;4991495;28;20447;-66
2021/06/21 10:18:48;;;;;;;1999.90;999.90;;;18.50;99.90;;;;;;4990020;28;20486;-65
2021/06/21 10:21:15;;;;;;;1999.90;999.90;;;18.40;99.90;;;;;;4990933;28;20423;-65
2021/06/21 10:23:40;;;;;;;1999.90;999.90;;;18.30;99.90;;;;;;4990986;28;20428;-67
2021/06/21 10:26:07;;;;;;;1999.90;999.90;;;18.30;99.90;;;;;;4990914;28;20847;-64
2021/06/21 10:28:34;;;;;;;1999.90;999.90;;;18.30;99.90;;;;;;4990523;28;20184;-64
2021/06/21 10:31:00;;;;;;;1999.90;999.90;;;18.20;99.90;;;;;;4990796;28;20483;-64
2021/06/21 10:33:25;;;;;;;1999.90;999.90;;;18.20;99.90;;;;;;4990143;28;20457;-64
2021/06/21 10:35:58;;;;;;;1999.90;999.90;;;18.30;99.90;;;;;;4990499;28;20184;-66
2021/06/21 10:38:24;;;;;;;1999.90;999.90;;;18.30;99.90;;;;;;4990871;28;20187;-66
2021/06/21 10:40:54;;;;;;;1999.90;999.90;;;18.30;99.90;;;;;;4990297;28;20419;-67
2021/06/21 10:43:48;;;;;;;1999.90;999.90;;;18.20;99.90;;;;;;4990263;28;20674;-66
2021/06/21 10:46:14;;;;;;;1999.90;999.90;;;18.20;99.90;;;;;;4989574;28;20444;-65
2021/06/21 10:49:00;;;;;;;1999.90;999.90;;;18.10;99.90;;;;;;4989987;28;20998;-66
2021/06/21 10:51:40;;;;;;;1999.90;999.90;;;18.10;99.90;;;;;;4970141;28;20591;-65
2021/06/21 10:54:20;;;;;;;1999.90;999.90;;;18.10;99.90;;;;;;4989582;28;20465;-66
2021/06/21 10:56:48;;;;;;;1999.90;999.90;;;18.10;99.90;;;;;;4990600;28;20453;-66
2021/06/21 10:59:21;;;;;;;1999.90;999.90;;;18.00;99.90;;;;;;4990573;28;20410;-66
2021/06/21 11:01:52;;;;;;;1999.90;999.90;;;18.00;99.90;;;;;;4989776;28;20418;-65
2021/06/21 11:04:37;;;;;;;1999.90;999.90;;;18.00;99.90;;;;;;4990104;28;20417;-65
2021/06/21 11:07:09;;;;;;;1999.90;999.90;;;17.80;99.90;;;;;;4990559;28;20951;-65
2021/06/21 11:09:48;;;;;;;1999.90;999.90;;;17.90;99.90;;;;;;4989627;28;20500;-66
2021/06/21 11:12:26;;;;;;;1999.90;999.90;;;17.90;99.90;;;;;;4990268;28;20473;-66
2021/06/21 11:17:32;;;;;;;1999.90;999.90;;;18.00;99.90;;;;;;4990263;28;20427;-65
2021/06/21 11:20:16;;;;;;;1999.90;999.90;;;17.90;99.90;;;;;;4990648;28;20457;-65
2021/06/21 11:22:46;;;;;;;1999.90;999.90;;;17.90;99.90;;;;;;4990477;28;20420;-65
2021/06/21 11:25:29;;;;;;;1999.90;999.90;;;18.00;99.90;;;;;;4989721;28;21004;-66
2021/06/21 11:27:55;;;;;;;1999.90;999.90;;;18.00;99.90;;;;;;4989960;28;20542;-67
2021/06/21 11:30:30;;;;;;;1999.90;999.90;;;17.90;99.90;;;;;;4989836;28;20479;-66
2021/06/21 11:33:03;;;;;;;1999.90;999.90;;;17.90;99.90;;;;;;4993862;28;20404;-66
2021/06/21 11:35:48;;;;;;;1999.90;999.90;;;17.80;99.90;;;;;;4993980;28;20413;-66
2021/06/21 11:38:40;;;;;;;1999.90;999.90;;;17.90;99.90;;;;;;4994141;28;20417;-66
2021/06/21 11:41:26;;;;;;;1999.90;999.90;;;17.80;99.90;;;;;;4992468;28;20421;-66
2021/06/21 11:44:01;;;;;;;1999.90;999.90;;;17.90;99.90;;;;;;4993718;28;20481;-66
2021/06/21 11:46:45;;;;;;;1999.90;999.90;;;18.10;99.90;;;;;;4993897;28;20415;-66
2021/06/21 11:49:17;;;;;;;1999.90;999.90;;;18.20;99.90;;;;;;4993588;28;20377;-65
2021/06/21 11:51:59;;;;;;;1999.90;999.90;;;18.20;99.90;;;;;;4993616;28;20397;-65
2021/06/21 11:54:25;;;;;;;1999.90;999.90;;;18.10;99.90;;;;;;4992829;28;20838;-66
2021/06/21 11:56:53;;;;;;;1999.90;999.90;;;17.90;99.90;;;;;;4993890;28;20518;-66
2021/06/21 11:59:40;;;;;;;1999.90;999.90;;;17.80;99.90;;;;;;4993913;28;20777;-66
2021/06/21 12:02:16;;;;;;;1999.90;999.90;;;17.60;99.90;;;;;;4993458;28;20401;-66
2021/06/21 12:04:43;;;;;;;1999.90;999.90;;;17.40;99.90;;;;;;4993569;28;20404;-66
2021/06/21 12:07:26;;;;;;;1999.90;999.90;;;17.30;99.90;;;;;;4994047;28;20433;-66
2021/06/21 12:09:53;;;;;;;1999.90;999.90;;;17.30;99.90;;;;;;4992969;28;20895;-66
2021/06/21 12:12:27;;;;;;;1999.90;999.90;;;17.30;99.90;;;;;;4993408;28;20753;-66